Time;durP1;ratioP1;P1;durP2;ratioP2;P2;SDS_P1;SDS_P2;PMS_P1;PMS_P2;Temp;Humidity;BMP_temperature;BMP_pressure;BME280_temperature;BME280_humidity;BME280_pressure;Samples;Min_cycle;Max_cycle;Signal;HPM_P1;HPM_P2
2022/03/27 00:00:07;;;;;;;;;;;7.50;99.90;;;;;;5088005;28;19924;-51
2022/03/27 00:02:34;;;;;;;;;;;7.50;99.90;;;;;;5086034;28;19964;-52
2022/03/27 00:05:01;;;;;;;;;;;7.40;99.90;;;;;;5073271;28;19929;-51
2022/03/27 00:07:27;;;;;;;;;;;7.40;99.90;;;;;;5071702;28;20395;-52
2022/03/27 00:09:54;;;;;;;;;;;7.40;99.90;;;;;;5071221;28;19955;-52
2022/03/27 00:12:22;;;;;;;;;;;7.40;99.90;;;;;;5073560;28;19933;-51
2022/03/27 00:14:49;;;;;;;;;;;7.40;99.90;;;;;;5080370;28;19928;-51
2022/03/27 00:17:18;;;;;;;;;;;7.30;99.90;;;;;;5080044;28;19969;-52
2022/03/27 00:19:45;;;;;;;;;;;7.30;99.90;;;;;;5079864;28;19924;-53
2022/03/27 00:22:12;;;;;;;;;;;7.30;99.90;;;;;;5084584;28;19925;-51
2022/03/27 00:24:38;;;;;;;;;;;7.50;99.90;;;;;;5081441;28;19932;-52
2022/03/27 00:27:05;;;;;;;;;;;7.50;99.90;;;;;;5071085;28;19924;-52
2022/03/27 00:29:33;;;;;;;;;;;7.50;99.90;;;;;;5085302;28;19924;-51
2022/03/27 00:32:00;;;;;;;;;;;7.60;99.90;;;;;;5091088;28;20389;-51
2022/03/27 00:34:27;;;;;;;;;;;7.50;99.90;;;;;;5086832;28;19924;-51
2022/03/27 00:36:54;;;;;;;;;;;7.30;99.90;;;;;;5091225;28;19928;-51
2022/03/27 00:39:21;;;;;;;;;;;7.30;99.90;;;;;;5090103;28;19981;-52
2022/03/27 00:41:49;;;;;;;;;;;7.30;99.90;;;;;;5072981;28;19971;-51
2022/03/27 00:44:16;;;;;;;;;;;7.10;99.90;;;;;;5086883;28;19932;-51
2022/03/27 00:46:44;;;;;;;;;;;7.00;99.90;;;;;;5089363;28;19925;-51
2022/03/27 00:49:11;;;;;;;;;;;7.10;99.90;;;;;;5089064;28;19928;-51
2022/03/27 00:51:37;;;;;;;;;;;7.10;99.90;;;;;;5090120;28;19977;-52
2022/03/27 00:54:05;;;;;;;;;;;7.20;99.90;;;;;;5081093;28;19924;-51
2022/03/27 00:56:32;;;;;;;;;;;7.10;99.90;;;;;;5090014;28;19924;-51
2022/03/27 00:58:58;;;;;;;;;;;7.10;99.90;;;;;;5079118;28;19971;-50
2022/03/27 01:01:33;;;;;;;;;;;6.90;99.90;;;;;;5089432;28;19935;-50
2022/03/27 01:04:01;;;;;;;;;;;6.70;99.90;;;;;;5087908;28;20344;-52
2022/03/27 01:06:31;;;;;;;;;;;6.50;99.90;;;;;;5075556;28;19986;-52
2022/03/27 01:11:43;;;;;;;;;;;6.40;99.90;;;;;;5077217;28;19927;-51
2022/03/27 01:14:10;;;;;;;;;;;6.30;99.90;;;;;;5089142;28;19925;-51
2022/03/27 01:16:38;;;;;;;;;;;6.20;99.90;;;;;;5092414;28;19924;-51
2022/03/27 01:19:07;;;;;;;;;;;6.10;99.90;;;;;;5094404;28;19962;-51
2022/03/27 01:21:38;;;;;;;;;;;6.10;99.90;;;;;;5094028;28;19924;-52
2022/03/27 01:24:06;;;;;;;;;;;6.10;99.90;;;;;;5091564;28;20375;-52
2022/03/27 01:26:33;;;;;;;;;;;6.00;99.90;;;;;;5094004;28;19924;-51
2022/03/27 01:29:00;;;;;;;;;;;6.00;99.90;;;;;;5092404;28;19986;-51
2022/03/27 01:31:27;;;;;;;;;;;6.00;99.90;;;;;;5074551;28;20380;-51
2022/03/27 01:33:53;;;;;;;;;;;5.90;99.90;;;;;;5089706;28;19989;-51
2022/03/27 01:36:21;;;;;;;;;;;5.90;99.90;;;;;;5093336;28;19924;-52
2022/03/27 01:38:49;;;;;;;;;;;5.90;99.90;;;;;;5087088;28;19931;-51
2022/03/27 01:41:16;;;;;;;;;;;5.90;99.90;;;;;;5083257;28;19971;-52
2022/03/27 01:43:43;;;;;;;;;;;5.90;99.90;;;;;;5089598;28;19932;-51
2022/03/27 01:46:12;;;;;;;;;;;5.90;99.90;;;;;;5080549;28;20303;-51
2022/03/27 01:48:38;;;;;;;;;;;6.00;99.90;;;;;;5086465;28;19931;-52
2022/03/27 01:51:05;;;;;;;;;;;6.00;99.90;;;;;;5081556;28;19924;-52
2022/03/27 01:53:32;;;;;;;;;;;6.00;99.90;;;;;;5084958;28;19924;-51
2022/03/27 01:56:00;;;;;;;;;;;6.00;99.90;;;;;;5088638;28;19974;-51
2022/03/27 01:58:27;;;;;;;;;;;6.00;99.90;;;;;;5079912;28;19927;-51
2022/03/27 02:00:54;;;;;;;;;;;5.90;99.90;;;;;;5074690;28;19932;-51
2022/03/27 02:03:21;;;;;;;;;;;5.80;99.90;;;;;;5084024;28;20558;-51
2022/03/27 02:05:48;;;;;;;;;;;5.80;99.90;;;;;;5088082;28;19977;-51
2022/03/27 02:08:14;;;;;;;;;;;5.70;99.90;;;;;;5088068;28;20383;-51
2022/03/27 02:10:42;;;;;;;;;;;5.70;99.90;;;;;;5092287;28;19932;-51
2022/03/27 02:13:18;;;;;;;;;;;5.60;99.90;;;;;;5092802;28;19924;-49
2022/03/27 02:15:45;;;;;;;;;;;5.60;99.90;;;;;;5073496;28;19932;-52
2022/03/27 02:18:12;;;;;;;;;;;5.60;99.90;;;;;;5080310;28;19925;-52
2022/03/27 02:20:39;;;;;;;;;;;5.60;99.90;;;;;;5086971;28;19977;-51
2022/03/27 02:23:06;;;;;;;;;;;5.50;99.90;;;;;;5074897;28;19925;-51
2022/03/27 02:25:33;;;;;;;;;;;5.40;99.90;;;;;;5083894;28;19924;-52
2022/03/27 02:28:00;;;;;;;;;;;5.40;99.90;;;;;;5076511;28;19925;-51
2022/03/27 02:30:28;;;;;;;;;;;5.40;99.90;;;;;;5080431;28;19978;-51
2022/03/27 02:32:56;;;;;;;;;;;5.30;99.90;;;;;;5077017;28;19924;-52
2022/03/27 02:35:22;;;;;;;;;;;5.30;99.90;;;;;;5082524;28;19925;-52
2022/03/27 02:37:49;;;;;;;;;;;5.20;99.90;;;;;;5072717;28;19925;-51
2022/03/27 02:40:16;;;;;;;;;;;5.30;99.90;;;;;;5088827;28;19928;-51
2022/03/27 02:42:43;;;;;;;;;;;5.20;99.90;;;;;;5073407;28;19993;-51
2022/03/27 02:45:10;;;;;;;;;;;5.20;99.90;;;;;;5087210;28;19947;-51
2022/03/27 02:47:38;;;;;;;;;;;5.20;99.90;;;;;;5075498;28;19925;-51
2022/03/27 02:50:05;;;;;;;;;;;5.20;99.90;;;;;;5082603;28;20284;-51
2022/03/27 02:52:32;;;;;;;;;;;5.10;99.90;;;;;;5090296;28;19962;-52
2022/03/27 02:54:59;;;;;;;;;;;5.10;99.90;;;;;;5078141;28;19925;-51
2022/03/27 02:57:26;;;;;;;;;;;5.10;99.90;;;;;;5079267;28;20384;-52
2022/03/27 02:59:53;;;;;;;;;;;5.40;99.90;;;;;;5077666;28;19989;-51
2022/03/27 03:02:20;;;;;;;;;;;5.30;99.90;;;;;;5084610;28;20403;-52
2022/03/27 03:04:48;;;;;;;;;;;5.30;99.90;;;;;;5123570;22;19923;-58
2022/03/27 03:07:15;;;;;;;;;;;5.50;99.90;;;;;;5114126;28;20313;-58
2022/03/27 03:09:42;;;;;;;;;;;5.40;99.90;;;;;;5114305;28;19967;-58
2022/03/27 03:12:10;;;;;;;;;;;5.40;99.90;;;;;;5113814;28;19923;-58
2022/03/27 03:14:37;;;;;;;;;;;5.20;99.90;;;;;;5101029;28;19924;-58
2022/03/27 03:17:04;;;;;;;;;;;5.10;99.90;;;;;;5093345;28;19924;-58
2022/03/27 03:19:32;;;;;;;;;;;5.20;99.90;;;;;;5092949;28;19950;-58
2022/03/27 03:22:00;;;;;;;;;;;5.20;99.90;;;;;;5092955;28;19924;-57
2022/03/27 03:24:27;;;;;;;;;;;5.30;99.90;;;;;;5092948;28;19981;-58
2022/03/27 03:26:54;;;;;;;;;;;5.20;99.90;;;;;;5093398;28;19932;-57
2022/03/27 03:29:22;;;;;;;;;;;5.00;99.90;;;;;;5093321;28;19977;-57
2022/03/27 03:31:49;;;;;;;;;;;4.80;99.90;;;;;;5092221;28;19924;-58
2022/03/27 03:34:16;;;;;;;;;;;4.70;99.90;;;;;;5092426;28;19950;-57
2022/03/27 03:36:43;;;;;;;;;;;4.70;99.90;;;;;;5093018;28;20341;-57
2022/03/27 03:39:11;;;;;;;;;;;4.60;99.90;;;;;;5092465;28;19985;-57
2022/03/27 03:41:38;;;;;;;;;;;4.40;99.90;;;;;;5092401;28;19969;-57
2022/03/27 03:44:05;;;;;;;;;;;4.40;99.90;;;;;;5093150;28;19923;-58
2022/03/27 03:46:32;;;;;;;;;;;4.40;99.90;;;;;;5093082;28;19924;-58
2022/03/27 03:48:58;;;;;;;;;;;4.30;99.90;;;;;;5093344;28;19924;-58
2022/03/27 03:51:25;;;;;;;;;;;4.30;99.90;;;;;;5095213;28;19935;-58
2022/03/27 03:53:52;;;;;;;;;;;4.30;99.90;;;;;;5094628;28;20371;-58
2022/03/27 03:56:20;;;;;;;;;;;4.20;99.90;;;;;;5094346;28;19924;-58
2022/03/27 03:58:47;;;;;;;;;;;4.20;99.90;;;;;;5092629;28;19924;-58
2022/03/27 04:01:17;;;;;;;;;;;4.20;99.90;;;;;;5092674;28;19928;-58
2022/03/27 04:03:44;;;;;;;;;;;4.10;99.90;;;;;;5092581;28;20398;-58
2022/03/27 04:06:11;;;;;;;;;;;4.20;99.90;;;;;;5091423;28;19973;-58
2022/03/27 04:08:37;;;;;;;;;;;4.20;99.90;;;;;;5091893;28;19928;-58
2022/03/27 04:11:04;;;;;;;;;;;4.20;99.90;;;;;;5092867;28;19924;-58
2022/03/27 04:13:32;;;;;;;;;;;4.20;99.90;;;;;;5092398;28;20418;-58
2022/03/27 04:16:00;;;;;;;;;;;4.20;99.90;;;;;;5092248;28;20306;-58
2022/03/27 04:18:27;;;;;;;;;;;4.10;99.90;;;;;;5092035;28;19924;-58
2022/03/27 04:20:53;;;;;;;;;;;4.10;99.90;;;;;;5092264;28;19924;-58
2022/03/27 04:23:20;;;;;;;;;;;4.10;99.90;;;;;;5092161;28;19967;-58
2022/03/27 04:25:47;;;;;;;;;;;4.00;99.90;;;;;;5092003;28;19925;-58
2022/03/27 04:28:14;;;;;;;;;;;4.00;99.90;;;;;;5091678;28;20391;-57
2022/03/27 04:30:42;;;;;;;;;;;4.00;99.90;;;;;;5092190;28;19985;-58
2022/03/27 04:33:10;;;;;;;;;;;3.90;99.90;;;;;;5092109;28;19924;-58
2022/03/27 04:35:37;;;;;;;;;;;3.90;99.90;;;;;;5092259;28;20295;-58
2022/03/27 04:38:05;;;;;;;;;;;3.90;99.90;;;;;;5087629;28;19924;-57
2022/03/27 04:40:31;;;;;;;;;;;3.90;99.90;;;;;;5092122;28;20002;-57
2022/03/27 04:42:58;;;;;;;;;;;3.80;99.90;;;;;;5091173;28;19927;-57
2022/03/27 04:45:25;;;;;;;;;;;3.80;99.90;;;;;;5091802;28;19950;-57
2022/03/27 04:47:53;;;;;;;;;;;3.80;99.90;;;;;;5095327;28;20355;-57
2022/03/27 04:50:20;;;;;;;;;;;3.90;99.90;;;;;;5096299;28;19924;-58
2022/03/27 04:52:47;;;;;;;;;;;4.00;99.90;;;;;;5095289;28;20296;-57
2022/03/27 04:55:13;;;;;;;;;;;3.90;99.90;;;;;;5096387;28;19974;-58
2022/03/27 04:57:41;;;;;;;;;;;3.90;99.90;;;;;;5095651;28;19928;-57
2022/03/27 05:00:10;;;;;;;;;;;3.90;99.90;;;;;;5095806;28;19924;-57
2022/03/27 05:02:37;;;;;;;;;;;3.90;99.90;;;;;;5095942;28;20283;-57
2022/03/27 05:05:06;;;;;;;;;;;3.90;99.90;;;;;;5095533;28;19924;-58
2022/03/27 05:07:34;;;;;;;;;;;3.80;99.90;;;;;;5095310;28;20360;-57
2022/03/27 05:10:00;;;;;;;;;;;3.80;99.90;;;;;;5095254;28;19931;-58
2022/03/27 05:12:27;;;;;;;;;;;3.80;99.90;;;;;;5094779;28;20419;-58
2022/03/27 05:14:54;;;;;;;;;;;3.80;99.90;;;;;;5094779;28;19985;-58
2022/03/27 05:17:21;;;;;;;;;;;3.80;99.90;;;;;;5094891;28;19993;-58
2022/03/27 05:19:47;;;;;;;;;;;3.90;99.90;;;;;;5094846;28;19954;-57
2022/03/27 05:22:16;;;;;;;;;;;3.80;99.90;;;;;;5095106;28;19924;-58
2022/03/27 05:24:43;;;;;;;;;;;3.90;99.90;;;;;;5094771;28;19927;-58
2022/03/27 05:27:10;;;;;;;;;;;3.90;99.90;;;;;;5090177;28;19932;-58
2022/03/27 05:29:36;;;;;;;;;;;3.90;99.90;;;;;;5094782;28;19924;-58
2022/03/27 05:32:04;;;;;;;;;;;3.80;99.90;;;;;;5094559;28;20018;-57
2022/03/27 05:34:30;;;;;;;;;;;3.90;99.90;;;;;;5095265;28;19927;-57
2022/03/27 05:36:57;;;;;;;;;;;3.90;99.90;;;;;;5095335;28;19977;-57
2022/03/27 05:39:25;;;;;;;;;;;4.00;99.90;;;;;;5093483;28;20387;-57
2022/03/27 05:41:52;;;;;;;;;;;4.00;99.90;;;;;;5095924;28;19924;-58
2022/03/27 05:44:19;;;;;;;;;;;4.20;99.90;;;;;;5094899;28;20292;-57
2022/03/27 05:46:46;;;;;;;;;;;4.30;99.90;;;;;;5098851;28;20345;-58
2022/03/27 05:49:12;;;;;;;;;;;4.40;99.90;;;;;;5095262;28;19939;-57
2022/03/27 05:51:39;;;;;;;;;;;4.50;99.90;;;;;;5097164;28;19973;-58
2022/03/27 05:54:06;;;;;;;;;;;4.70;99.90;;;;;;5097701;28;20600;-58
2022/03/27 05:56:34;;;;;;;;;;;4.80;99.90;;;;;;5099288;28;19977;-59
2022/03/27 05:59:01;;;;;;;;;;;4.90;99.90;;;;;;5096195;28;19928;-57
2022/03/27 06:01:27;;;;;;;;;;;5.10;99.90;;;;;;5097061;28;20370;-57
2022/03/27 06:03:54;;;;;;;;;;;5.30;99.90;;;;;;5097414;28;19924;-57
2022/03/27 06:06:21;;;;;;;;;;;5.50;99.90;;;;;;5093591;28;19997;-57
2022/03/27 06:08:47;;;;;;;;;;;6.80;99.90;;;;;;5091725;28;19969;-57
2022/03/27 06:11:14;;;;;;;;;;;9.10;99.90;;;;;;5092402;28;19924;-58
2022/03/27 06:13:42;;;;;;;;;;;11.50;99.90;;;;;;5092958;28;19993;-58
2022/03/27 06:16:09;;;;;;;;;;;13.90;99.90;;;;;;5092986;28;19934;-58
2022/03/27 06:18:36;;;;;;;;;;;15.90;99.90;;;;;;5092167;28;19974;-58
2022/03/27 06:21:03;;;;;;;;;;;16.60;97.00;;;;;;5090890;28;19924;-58
2022/03/27 06:23:30;;;;;;;;;;;17.90;94.60;;;;;;5092495;28;19970;-59
2022/03/27 06:25:56;;;;;;;;;;;19.20;90.40;;;;;;5091867;28;19924;-58
2022/03/27 06:28:23;;;;;;;;;;;20.30;83.60;;;;;;5091736;28;19936;-58
2022/03/27 06:30:51;;;;;;;;;;;21.10;79.60;;;;;;5089935;28;19977;-59
2022/03/27 06:33:18;;;;;;;;;;;21.80;76.80;;;;;;5092249;28;19931;-60
2022/03/27 06:35:45;;;;;;;;;;;22.60;74.80;;;;;;5091868;28;20379;-59
2022/03/27 06:38:12;;;;;;;;;;;23.30;70.50;;;;;;5087693;28;19932;-58
2022/03/27 06:40:38;;;;;;;;;;;24.00;68.50;;;;;;5087793;28;20538;-59
2022/03/27 06:43:05;;;;;;;;;;;24.60;66.60;;;;;;5084755;28;19952;-58
2022/03/27 06:45:32;;;;;;;;;;;25.20;63.50;;;;;;5084164;28;19924;-58
2022/03/27 06:48:00;;;;;;;;;;;26.00;61.00;;;;;;5082889;28;20395;-59
2022/03/27 06:50:27;;;;;;;;;;;26.60;58.60;;;;;;5083069;28;19924;-58
2022/03/27 06:52:54;;;;;;;;;;;27.10;57.70;;;;;;5082651;28;19935;-58
2022/03/27 06:55:21;;;;;;;;;;;27.30;58.10;;;;;;5082053;28;19924;-58
2022/03/27 06:57:48;;;;;;;;;;;27.10;56.70;;;;;;5082609;28;19964;-58
2022/03/27 07:03:06;;;;;;;;;;;27.00;54.90;;;;;;5082329;28;19935;-58
2022/03/27 07:05:35;;;;;;;;;;;27.20;53.60;;;;;;5083160;28;19943;-58
2022/03/27 07:08:01;;;;;;;;;;;27.30;54.00;;;;;;5083199;28;19924;-59
2022/03/27 07:10:28;;;;;;;;;;;27.10;55.00;;;;;;5082099;28;20334;-58
2022/03/27 07:12:55;;;;;;;;;;;25.50;54.60;;;;;;5083099;28;20056;-58
2022/03/27 07:15:24;;;;;;;;;;;25.80;56.00;;;;;;5083188;28;19997;-59
2022/03/27 07:17:52;;;;;;;;;;;26.70;55.00;;;;;;5082791;28;19932;-60
2022/03/27 07:20:20;;;;;;;;;;;26.80;54.30;;;;;;5088700;28;19942;-60
2022/03/27 07:22:47;;;;;;;;;;;26.70;54.40;;;;;;5090128;28;20009;-58
2022/03/27 07:25:14;;;;;;;;;;;26.80;55.00;;;;;;5090446;28;19977;-58
2022/03/27 07:27:41;;;;;;;;;;;26.00;55.70;;;;;;5090535;28;19932;-58
2022/03/27 07:30:09;;;;;;;;;;;26.90;53.80;;;;;;5090427;28;19928;-59
2022/03/27 07:32:36;;;;;;;;;;;26.30;53.40;;;;;;5090616;28;19964;-59
2022/03/27 07:35:03;;;;;;;;;;;27.60;52.00;;;;;;5090523;28;20302;-59
2022/03/27 07:37:34;;;;;;;;;;;29.00;50.70;;;;;;5089908;28;19932;-58
2022/03/27 07:40:03;;;;;;;;;;;29.70;49.00;;;;;;5090373;28;19928;-59
2022/03/27 07:42:30;;;;;;;;;;;30.40;48.30;;;;;;5090320;28;19993;-58
2022/03/27 07:44:57;;;;;;;;;;;30.70;46.60;;;;;;5091363;28;20280;-58
2022/03/27 07:47:24;;;;;;;;;;;30.80;46.30;;;;;;5090147;28;20387;-58
2022/03/27 07:49:51;;;;;;;;;;;31.30;46.10;;;;;;5090398;28;20348;-58
2022/03/27 07:52:18;;;;;;;;;;;31.30;46.80;;;;;;5090352;28;19985;-58
2022/03/27 07:54:46;;;;;;;;;;;31.60;45.00;;;;;;5089189;28;19924;-60
2022/03/27 07:57:13;;;;;;;;;;;31.90;44.00;;;;;;5084508;28;19989;-61
2022/03/27 07:59:40;;;;;;;;;;;31.70;45.30;;;;;;5085270;28;19928;-61
2022/03/27 08:02:08;;;;;;;;;;;32.30;43.50;;;;;;5088887;28;19958;-61
2022/03/27 08:04:35;;;;;;;;;;;33.10;42.40;;;;;;5089953;28;19924;-60
2022/03/27 08:07:02;;;;;;;;;;;33.40;41.70;;;;;;5086133;28;19924;-59
2022/03/27 08:09:29;;;;;;;;;;;33.30;41.40;;;;;;5089006;28;19924;-59
2022/03/27 08:12:00;;;;;;;;;;;33.20;40.50;;;;;;5084654;28;20376;-59
2022/03/27 08:14:31;;;;;;;;;;;33.30;40.50;;;;;;5087848;28;19925;-61
2022/03/27 08:16:58;;;;;;;;;;;32.10;43.20;;;;;;5090296;28;19924;-61
2022/03/27 08:19:24;;;;;;;;;;;28.20;45.80;;;;;;5086198;28;19932;-60
2022/03/27 08:21:51;;;;;;;;;;;28.20;46.60;;;;;;5093090;28;19989;-61
2022/03/27 08:24:18;;;;;;;;;;;28.20;48.80;;;;;;5094128;28;19924;-59
2022/03/27 08:26:56;;;;;;;;;;;29.00;47.30;;;;;;5086350;28;19958;-59
2022/03/27 08:29:25;;;;;;;;;;;30.30;44.30;;;;;;5085617;28;19924;-60
2022/03/27 08:31:52;;;;;;;;;;;30.40;42.40;;;;;;5084316;28;20001;-59
2022/03/27 08:34:19;;;;;;;;;;;31.10;42.20;;;;;;5085439;28;21931;-59
2022/03/27 08:36:45;;;;;;;;;;;31.40;40.80;;;;;;5084406;28;19938;-60
2022/03/27 08:39:12;;;;;;;;;;;32.30;37.70;;;;;;5084841;28;19928;-59
2022/03/27 08:41:41;;;;;;;;;;;32.90;37.10;;;;;;5086359;28;19924;-62
2022/03/27 08:44:10;;;;;;;;;;;32.50;39.60;;;;;;5088480;28;20441;-62
2022/03/27 08:46:40;;;;;;;;;;;32.10;39.10;;;;;;5083218;28;20315;-61
2022/03/27 08:49:08;;;;;;;;;;;32.20;38.50;;;;;;5084500;28;20005;-60
2022/03/27 08:51:41;;;;;;;;;;;32.00;38.00;;;;;;5084690;28;19989;-61
2022/03/27 08:54:10;;;;;;;;;;;32.10;39.30;;;;;;5084622;28;19924;-61
2022/03/27 08:56:37;;;;;;;;;;;32.30;38.90;;;;;;5086403;28;19924;-61
2022/03/27 08:59:06;;;;;;;;;;;32.20;39.20;;;;;;5085631;28;20402;-61
2022/03/27 09:01:33;;;;;;;;;;;32.80;39.30;;;;;;5084715;28;19977;-62
2022/03/27 09:04:02;;;;;;;;;;;31.90;41.40;;;;;;5084647;28;19967;-61
2022/03/27 09:06:28;;;;;;;;;;;31.70;38.60;;;;;;5088327;28;19931;-61
2022/03/27 09:08:55;;;;;;;;;;;32.30;39.00;;;;;;5078294;28;19927;-61
2022/03/27 09:11:23;;;;;;;;;;;32.30;37.20;;;;;;5085777;28;19924;-61
2022/03/27 09:13:50;;;;;;;;;;;32.10;37.80;;;;;;5092127;28;19924;-61
2022/03/27 09:16:17;;;;;;;;;;;32.60;39.20;;;;;;5085679;28;19924;-61
2022/03/27 09:18:46;;;;;;;;;;;32.50;36.90;;;;;;5093851;28;19931;-61
2022/03/27 09:21:14;;;;;;;;;;;31.70;36.10;;;;;;5081625;28;20284;-61
2022/03/27 09:23:41;;;;;;;;;;;31.20;38.80;;;;;;5086632;28;19970;-61
2022/03/27 09:26:09;;;;;;;;;;;31.70;36.10;;;;;;5090675;28;19969;-61
2022/03/27 09:28:36;;;;;;;;;;;32.20;37.80;;;;;;5076262;28;19931;-61
2022/03/27 09:31:04;;;;;;;;;;;31.60;38.90;;;;;;5092479;28;19924;-61
2022/03/27 09:33:32;;;;;;;;;;;30.70;41.30;;;;;;5092373;28;19939;-61
2022/03/27 09:36:04;;;;;;;;;;;29.80;43.40;;;;;;5087595;28;21638;-60
2022/03/27 09:38:32;;;;;;;;;;;29.90;45.70;;;;;;5084017;28;19924;-60
2022/03/27 09:40:59;;;;;;;;;;;27.00;49.40;;;;;;5087567;28;19936;-60
2022/03/27 09:43:25;;;;;;;;;;;26.40;50.80;;;;;;5086482;28;19940;-60
2022/03/27 09:45:57;;;;;;;;;;;25.40;52.30;;;;;;5087065;28;20416;-60
2022/03/27 09:48:24;;;;;;;;;;;23.60;53.00;;;;;;5081566;28;20350;-60
2022/03/27 09:50:52;;;;;;;;;;;24.50;53.80;;;;;;5086615;28;19924;-60
2022/03/27 09:53:20;;;;;;;;;;;24.30;53.70;;;;;;5091980;28;19924;-60
2022/03/27 09:55:52;;;;;;;;;;;24.50;55.70;;;;;;5085314;28;19924;-59
2022/03/27 09:58:32;;;;;;;;;;;24.50;53.40;;;;;;5084864;28;20387;-59
2022/03/27 10:01:07;;;;;;;;;;;25.00;52.30;;;;;;5084017;28;19985;-59
2022/03/27 10:03:34;;;;;;;;;;;26.60;52.00;;;;;;5083481;28;19924;-59
2022/03/27 10:06:01;;;;;;;;;;;26.20;50.70;;;;;;5084017;28;19939;-59
2022/03/27 10:08:28;;;;;;;;;;;26.80;50.50;;;;;;5089172;28;19924;-59
2022/03/27 10:10:58;;;;;;;;;;;25.90;51.10;;;;;;5092083;28;19969;-59
2022/03/27 10:13:28;;;;;;;;;;;25.80;51.30;;;;;;5089147;28;19928;-59
2022/03/27 10:15:57;;;;;;;;;;;25.90;50.80;;;;;;5091761;28;19924;-59
2022/03/27 10:18:24;;;;;;;;;;;26.50;53.30;;;;;;5086155;28;20280;-59
2022/03/27 10:20:52;;;;;;;;;;;28.10;48.60;;;;;;5091212;28;19970;-59
2022/03/27 10:23:23;;;;;;;;;;;28.00;50.30;;;;;;5092210;28;19936;-59
2022/03/27 10:25:52;;;;;;;;;;;26.80;49.70;;;;;;5084176;28;19925;-59
2022/03/27 10:28:21;;;;;;;;;;;25.80;52.40;;;;;;5080824;28;19924;-59
2022/03/27 10:30:50;;;;;;;;;;;24.70;52.40;;;;;;5084466;28;19993;-59
2022/03/27 10:33:17;;;;;;;;;;;23.60;54.00;;;;;;5087979;28;19954;-59
2022/03/27 10:35:48;;;;;;;;;;;23.50;54.60;;;;;;5092617;28;19977;-60
2022/03/27 10:38:20;;;;;;;;;;;24.10;54.70;;;;;;5091864;28;19924;-59
2022/03/27 10:40:54;;;;;;;;;;;23.90;54.20;;;;;;5092052;28;19932;-59
2022/03/27 10:43:25;;;;;;;;;;;24.90;51.10;;;;;;5090147;28;19970;-59
2022/03/27 10:46:10;;;;;;;;;;;24.60;53.90;;;;;;5089746;28;19928;-59
2022/03/27 10:48:42;;;;;;;;;;;24.80;54.80;;;;;;5085940;28;19924;-59
2022/03/27 10:51:09;;;;;;;;;;;24.60;52.00;;;;;;5087903;28;20023;-59
2022/03/27 10:53:36;;;;;;;;;;;24.90;53.60;;;;;;5084698;28;19924;-59
2022/03/27 10:56:03;;;;;;;;;;;24.30;55.20;;;;;;5080515;28;21647;-59
2022/03/27 10:58:32;;;;;;;;;;;22.80;56.50;;;;;;5083669;28;19967;-59
2022/03/27 11:01:00;;;;;;;;;;;21.50;58.30;;;;;;5083408;28;19924;-59
2022/03/27 11:03:41;;;;;;;;;;;20.30;57.50;;;;;;5083506;28;19928;-59
2022/03/27 11:06:19;;;;;;;;;;;20.40;57.90;;;;;;5080381;28;20046;-59
2022/03/27 11:08:47;;;;;;;;;;;20.00;58.10;;;;;;5083622;28;19924;-59
2022/03/27 11:11:28;;;;;;;;;;;19.80;59.40;;;;;;5082851;28;19930;-59
2022/03/27 11:13:57;;;;;;;;;;;19.70;59.50;;;;;;5080813;28;19978;-59
2022/03/27 11:16:26;;;;;;;;;;;19.50;60.20;;;;;;5071462;28;20445;-60
2022/03/27 11:18:53;;;;;;;;;;;19.10;60.40;;;;;;5088983;28;19928;-58
2022/03/27 11:21:35;;;;;;;;;;;19.00;59.20;;;;;;5085336;28;19928;-58
2022/03/27 11:24:16;;;;;;;;;;;19.00;61.20;;;;;;5083311;28;20363;-60
2022/03/27 11:26:43;;;;;;;;;;;19.30;61.60;;;;;;5082991;28;19932;-59
2022/03/27 11:29:21;;;;;;;;;;;19.80;62.70;;;;;;5083389;28;19928;-58
2022/03/27 11:32:03;;;;;;;;;;;20.10;60.50;;;;;;5089469;28;19924;-58
2022/03/27 11:34:30;;;;;;;;;;;19.00;61.10;;;;;;5080541;28;19970;-59
2022/03/27 11:37:13;;;;;;;;;;;19.10;62.00;;;;;;5082301;28;20295;-60
2022/03/27 11:39:40;;;;;;;;;;;19.20;61.20;;;;;;5081173;28;19924;-56
2022/03/27 11:42:28;;;;;;;;;;;19.40;60.60;;;;;;5081633;28;19993;-58
2022/03/27 11:45:25;;;;;;;;;;;19.30;62.30;;;;;;5085480;28;19932;-58
2022/03/27 11:47:54;;;;;;;;;;;19.50;60.90;;;;;;5015998;28;19934;-60
2022/03/27 11:50:23;;;;;;;;;;;19.20;62.90;;;;;;5067634;28;19936;-59
2022/03/27 11:52:50;;;;;;;;;;;19.20;61.90;;;;;;5082451;28;19924;-59
2022/03/27 11:55:18;;;;;;;;;;;19.50;62.50;;;;;;5080946;28;19970;-57
2022/03/27 11:57:46;;;;;;;;;;;19.60;64.30;;;;;;5087927;28;20357;-58
2022/03/27 12:00:14;;;;;;;;;;;19.70;63.00;;;;;;5086197;28;19924;-57
2022/03/27 12:02:41;;;;;;;;;;;19.60;63.30;;;;;;5066419;28;19932;-57
2022/03/27 12:05:10;;;;;;;;;;;19.40;64.60;;;;;;5023323;28;19929;-57
2022/03/27 12:07:49;;;;;;;;;;;19.00;62.20;;;;;;5022843;28;19995;-58
2022/03/27 12:10:16;;;;;;;;;;;19.10;62.10;;;;;;5022064;28;19980;-59
2022/03/27 12:12:55;;;;;;;;;;;18.90;63.10;;;;;;5022318;28;19955;-57
2022/03/27 12:15:22;;;;;;;;;;;19.10;64.70;;;;;;5021860;28;19925;-58
2022/03/27 12:17:48;;;;;;;;;;;19.20;62.80;;;;;;5022704;28;19933;-58
2022/03/27 12:20:16;;;;;;;;;;;19.00;62.50;;;;;;5022546;28;19967;-58
2022/03/27 12:22:44;;;;;;;;;;;19.00;62.40;;;;;;5022041;28;19929;-58
2022/03/27 12:25:18;;;;;;;;;;;19.00;59.20;;;;;;5022421;28;19956;-58
2022/03/27 12:30:33;;;;;;;;;;;19.00;61.10;;;;;;5022152;28;19948;-58
2022/03/27 12:33:01;;;;;;;;;;;19.20;60.80;;;;;;5030042;28;19925;-57
2022/03/27 12:35:30;;;;;;;;;;;19.40;58.20;;;;;;5023867;28;20004;-57
2022/03/27 12:37:57;;;;;;;;;;;19.70;60.60;;;;;;5023278;28;19972;-57
2022/03/27 12:40:25;;;;;;;;;;;19.60;60.80;;;;;;5022213;28;19975;-57
2022/03/27 12:42:52;;;;;;;;;;;19.90;58.00;;;;;;5020956;28;20308;-57
2022/03/27 12:45:29;;;;;;;;;;;19.70;59.60;;;;;;5021343;28;20000;-57
2022/03/27 12:47:58;;;;;;;;;;;19.80;58.40;;;;;;5021788;28;20380;-58
2022/03/27 12:50:36;;;;;;;;;;;19.70;59.60;;;;;;5022044;28;19929;-59
2022/03/27 12:53:07;;;;;;;;;;;19.90;60.00;;;;;;5022952;28;19929;-58
2022/03/27 12:55:42;;;;;;;;;;;20.00;61.10;;;;;;5019969;28;19929;-58
2022/03/27 12:58:08;;;;;;;;;;;19.80;61.30;;;;;;5021752;28;19929;-58
2022/03/27 13:00:40;;;;;;;;;;;19.90;58.90;;;;;;5023465;28;19933;-58
2022/03/27 13:03:11;;;;;;;;;;;19.90;57.40;;;;;;5021384;28;19925;-58
2022/03/27 13:05:39;;;;;;;;;;;20.20;58.70;;;;;;5021551;28;19925;-58
2022/03/27 13:08:08;;;;;;;;;;;20.20;59.40;;;;;;5022047;28;19953;-57
2022/03/27 13:10:37;;;;;;;;;;;20.00;59.70;;;;;;5025965;28;19932;-57
2022/03/27 13:13:06;;;;;;;;;;;20.00;61.90;;;;;;5025915;28;20075;-57
2022/03/27 13:15:36;;;;;;;;;;;20.10;62.90;;;;;;5025708;28;20607;-58
2022/03/27 13:18:07;;;;;;;;;;;20.00;62.10;;;;;;5025253;28;19933;-59
2022/03/27 13:20:34;;;;;;;;;;;19.90;61.10;;;;;;5025744;28;19960;-57
2022/03/27 13:23:02;;;;;;;;;;;20.30;61.70;;;;;;5025490;28;19926;-57
2022/03/27 13:25:29;;;;;;;;;;;20.40;62.90;;;;;;5032030;28;20316;-57
2022/03/27 13:27:56;;;;;;;;;;;20.10;59.30;;;;;;5024679;28;19956;-57
2022/03/27 13:30:22;;;;;;;;;;;19.80;60.60;;;;;;5033243;28;19925;-57
2022/03/27 13:32:49;;;;;;;;;;;20.00;62.00;;;;;;5025065;28;19979;-57
2022/03/27 13:35:17;;;;;;;;;;;20.00;60.80;;;;;;5024568;28;19995;-57
2022/03/27 13:37:45;;;;;;;;;;;20.20;60.00;;;;;;5030762;28;19925;-58
2022/03/27 13:40:14;;;;;;;;;;;20.00;57.10;;;;;;5033984;28;20308;-58
2022/03/27 13:45:24;;;;;;;;;;;20.10;56.30;;;;;;5029966;28;19932;-57
2022/03/27 13:47:51;;;;;;;;;;;20.30;55.80;;;;;;5033537;28;19970;-58
2022/03/27 13:50:18;;;;;;;;;;;20.40;55.60;;;;;;5032387;28;19925;-57
2022/03/27 13:52:44;;;;;;;;;;;20.40;56.50;;;;;;5026006;28;20007;-57
2022/03/27 13:55:11;;;;;;;;;;;20.30;57.50;;;;;;5027452;28;19925;-57
2022/03/27 13:57:39;;;;;;;;;;;20.20;57.90;;;;;;5022755;28;20014;-58
2022/03/27 14:00:07;;;;;;;;;;;20.50;58.30;;;;;;5021819;28;20066;-58
2022/03/27 14:02:35;;;;;;;;;;;20.50;58.00;;;;;;5023749;28;19976;-58
2022/03/27 14:05:02;;;;;;;;;;;20.30;59.80;;;;;;5023448;28;20266;-57
2022/03/27 14:07:29;;;;;;;;;;;20.40;59.60;;;;;;5021396;28;19944;-58
2022/03/27 14:09:55;;;;;;;;;;;20.50;59.30;;;;;;5022501;28;19956;-58
2022/03/27 14:12:22;;;;;;;;;;;20.20;59.80;;;;;;5022702;28;19994;-58
2022/03/27 14:14:50;;;;;;;;;;;20.10;61.60;;;;;;5026529;28;19948;-58
2022/03/27 14:17:17;;;;;;;;;;;20.20;60.60;;;;;;5019256;28;19926;-58
2022/03/27 14:19:44;;;;;;;;;;;20.20;59.20;;;;;;5018308;28;19929;-58
2022/03/27 14:22:12;;;;;;;;;;;20.00;60.00;;;;;;5021111;28;19929;-58
2022/03/27 14:24:39;;;;;;;;;;;20.20;60.80;;;;;;5029544;28;19995;-58
2022/03/27 14:27:10;;;;;;;;;;;20.30;60.70;;;;;;5024758;28;19944;-58
2022/03/27 14:29:36;;;;;;;;;;;20.40;62.50;;;;;;5027009;28;19936;-58
2022/03/27 14:32:09;;;;;;;;;;;20.20;60.40;;;;;;5020800;28;19976;-58
2022/03/27 14:34:36;;;;;;;;;;;20.20;59.70;;;;;;5020209;28;19947;-58
2022/03/27 14:37:04;;;;;;;;;;;20.30;58.80;;;;;;5022672;28;19987;-58
2022/03/27 14:39:31;;;;;;;;;;;20.30;58.50;;;;;;5021302;28;19933;-58